createdAt,value
2022-12-09T00:00:08.148Z,44.67
2022-12-09T00:02:35.523Z,38.53
2022-12-09T00:05:02.497Z,36.17
2022-12-09T00:07:29.530Z,30.87
2022-12-09T00:09:56.200Z,29.73
2022-12-09T00:12:23.253Z,25.97
2022-12-09T00:14:49.842Z,24.20
2022-12-09T00:17:16.801Z,22.57
2022-12-09T00:19:43.554Z,21.60
2022-12-09T00:22:10.205Z,20.27
2022-12-09T00:24:36.885Z,19.47
2022-12-09T00:27:03.802Z,21.37
2022-12-09T00:29:30.691Z,19.90
2022-12-09T00:31:57.584Z,19.27
2022-12-09T00:34:24.338Z,19.87
2022-12-09T00:36:51.037Z,21.90
2022-12-09T00:39:17.957Z,21.43
2022-12-09T00:41:44.839Z,22.67
2022-12-09T00:44:12.300Z,23.33
2022-12-09T00:46:39.159Z,22.13
2022-12-09T00:49:06.457Z,20.70
2022-12-09T00:51:33.543Z,18.90
2022-12-09T00:54:01.390Z,23.30
2022-12-09T00:56:29.871Z,25.57
2022-12-09T00:58:58.753Z,23.00
2022-12-09T01:01:26.829Z,24.77
2022-12-09T01:03:54.316Z,21.47
2022-12-09T01:06:23.915Z,21.70
2022-12-09T01:08:51.478Z,25.20
2022-12-09T01:11:21.573Z,24.87
2022-12-09T01:13:50.344Z,21.37
2022-12-09T01:16:20.522Z,17.03
2022-12-09T01:18:49.280Z,17.37
2022-12-09T01:21:16.245Z,21.10
2022-12-09T01:23:43.181Z,21.00
2022-12-09T01:26:10.585Z,23.27
2022-12-09T01:28:39.626Z,18.17
2022-12-09T01:31:15.534Z,20.07
2022-12-09T01:33:43.567Z,20.23
2022-12-09T01:36:14.871Z,17.83
2022-12-09T01:38:41.939Z,26.93
2022-12-09T01:41:08.789Z,19.97
2022-12-09T01:43:35.738Z,20.33
2022-12-09T01:46:02.754Z,20.17
2022-12-09T01:48:33.764Z,23.33
2022-12-09T01:51:20.016Z,22.73
2022-12-09T01:53:50.765Z,21.03
2022-12-09T01:56:28.947Z,22.63
2022-12-09T01:59:02.425Z,26.10
2022-12-09T02:01:29.505Z,22.67
2022-12-09T02:03:56.881Z,21.07
2022-12-09T02:06:23.889Z,20.47
2022-12-09T02:08:51.520Z,21.33
2022-12-09T02:11:27.179Z,23.57
2022-12-09T02:14:31.700Z,22.53
2022-12-09T02:17:36.073Z,20.70
2022-12-09T02:20:17.341Z,22.07
2022-12-09T02:22:48.123Z,22.57
2022-12-09T02:25:27.782Z,23.03
2022-12-09T02:28:17.132Z,20.43
2022-12-09T02:31:03.957Z,25.03
2022-12-09T02:34:07.977Z,23.53
2022-12-09T02:36:46.580Z,21.87
2022-12-09T02:39:13.411Z,20.53
2022-12-09T02:41:46.886Z,22.00
2022-12-09T02:44:17.233Z,22.83
2022-12-09T02:46:46.472Z,21.67
2022-12-09T02:49:14.718Z,21.13
2022-12-09T02:51:44.228Z,18.73
2022-12-09T02:54:16.446Z,23.93
2022-12-09T02:57:07.262Z,23.00
2022-12-09T02:59:33.966Z,21.60
2022-12-09T03:02:06.817Z,22.50
2022-12-09T03:04:33.836Z,20.63
2022-12-09T03:07:26.768Z,22.63
2022-12-09T03:10:04.684Z,25.30
2022-12-09T03:12:33.678Z,22.87
2022-12-09T03:15:05.915Z,25.70
2022-12-09T03:17:36.999Z,23.73
2022-12-09T03:20:09.114Z,28.40
2022-12-09T03:22:38.725Z,22.33
2022-12-09T03:25:47.053Z,26.93
2022-12-09T03:28:26.796Z,27.17
2022-12-09T03:30:56.270Z,26.87
2022-12-09T03:33:25.152Z,25.90
2022-12-09T03:35:56.179Z,24.13
2022-12-09T03:38:27.083Z,27.70
2022-12-09T03:41:23.719Z,28.37
2022-12-09T03:44:04.760Z,26.80
2022-12-09T03:46:32.180Z,27.17
2022-12-09T03:48:59.764Z,25.70
2022-12-09T03:51:34.705Z,27.17
2022-12-09T03:54:09.901Z,25.77
2022-12-09T03:56:41.753Z,25.97
2022-12-09T03:59:14.423Z,26.90
2022-12-09T04:01:44.533Z,22.43
2022-12-09T04:04:13.880Z,22.13
2022-12-09T04:06:40.755Z,22.30
2022-12-09T04:09:08.344Z,22.00
2022-12-09T04:11:35.591Z,23.20
2022-12-09T04:14:02.515Z,22.47
2022-12-09T04:16:29.545Z,22.87
2022-12-09T04:18:56.903Z,23.17
2022-12-09T04:21:23.985Z,21.57
2022-12-09T04:23:50.876Z,25.23
2022-12-09T04:26:21.204Z,23.10
2022-12-09T04:28:48.714Z,21.80
2022-12-09T04:31:18.161Z,23.57
2022-12-09T04:33:45.812Z,19.43
2022-12-09T04:36:15.315Z,20.97
2022-12-09T04:38:42.958Z,19.40
2022-12-09T04:41:10.409Z,20.93
2022-12-09T04:43:37.196Z,20.57
2022-12-09T04:46:10.481Z,19.17
2022-12-09T04:48:37.554Z,21.53
2022-12-09T04:51:04.457Z,18.53
2022-12-09T04:53:31.128Z,21.27
2022-12-09T04:56:14.838Z,17.23
2022-12-09T04:58:42.338Z,20.60
2022-12-09T05:01:11.355Z,20.77
2022-12-09T05:03:38.906Z,20.73
2022-12-09T05:06:08.172Z,19.57
2022-12-09T05:08:35.843Z,21.47
2022-12-09T05:11:03.484Z,21.57
2022-12-09T05:13:31.619Z,18.47
2022-12-09T05:16:02.889Z,19.50
2022-12-09T05:18:30.276Z,19.57
2022-12-09T05:20:57.398Z,22.17
2022-12-09T05:23:24.370Z,22.97
2022-12-09T05:25:51.827Z,19.13
2022-12-09T05:28:19.585Z,20.70
2022-12-09T05:30:46.609Z,20.13
2022-12-09T05:33:13.793Z,22.60
2022-12-09T05:35:52.465Z,23.13
2022-12-09T05:38:20.287Z,21.53
2022-12-09T05:40:47.265Z,21.00
2022-12-09T05:43:14.450Z,23.77
2022-12-09T05:45:41.587Z,25.20
2022-12-09T05:48:08.526Z,23.27
2022-12-09T05:50:36.620Z,20.93
2022-12-09T05:53:03.876Z,25.47
2022-12-09T05:55:36.588Z,24.83
2022-12-09T05:58:03.405Z,22.53
2022-12-09T06:00:30.353Z,22.37
2022-12-09T06:02:57.156Z,22.20
2022-12-09T06:05:24.508Z,22.57
2022-12-09T06:07:51.533Z,22.07
2022-12-09T06:10:18.970Z,22.70
2022-12-09T06:12:48.470Z,23.17
2022-12-09T06:15:20.428Z,20.83
2022-12-09T06:17:48.872Z,20.30
2022-12-09T06:20:19.407Z,22.80
2022-12-09T06:22:46.346Z,22.43
2022-12-09T06:25:13.457Z,23.17
2022-12-09T06:27:40.620Z,21.07
2022-12-09T06:30:08.347Z,21.20
2022-12-09T06:32:39.051Z,19.80
2022-12-09T06:35:07.619Z,19.20
2022-12-09T06:37:35.078Z,18.73
2022-12-09T06:40:05.400Z,18.37
2022-12-09T06:42:32.548Z,16.53
2022-12-09T06:44:59.439Z,20.97
2022-12-09T06:47:26.509Z,24.10
2022-12-09T06:49:53.448Z,24.10
2022-12-09T06:52:20.929Z,20.13
2022-12-09T06:54:48.131Z,21.97
2022-12-09T06:57:15.031Z,21.87
2022-12-09T06:59:42.200Z,19.43
2022-12-09T07:02:10.227Z,21.00
2022-12-09T07:04:37.756Z,17.53
2022-12-09T07:07:05.540Z,20.53
2022-12-09T07:09:33.173Z,19.87
2022-12-09T07:12:00.474Z,19.47
2022-12-09T07:14:27.519Z,21.87
2022-12-09T07:16:54.543Z,24.43
2022-12-09T07:19:23.277Z,23.17
2022-12-09T07:21:51.621Z,21.27
2022-12-09T07:24:20.167Z,20.93
2022-12-09T07:26:47.680Z,24.30
2022-12-09T07:29:14.744Z,22.63
2022-12-09T07:31:42.205Z,24.37
2022-12-09T07:34:11.232Z,22.77
2022-12-09T07:36:38.718Z,24.27
2022-12-09T07:39:17.809Z,22.37
2022-12-09T07:41:45.415Z,20.13
2022-12-09T07:44:12.766Z,20.77
2022-12-09T07:46:40.166Z,19.87
2022-12-09T07:49:07.584Z,20.47
2022-12-09T07:51:34.970Z,21.23
2022-12-09T07:54:01.832Z,19.70
2022-12-09T07:56:29.313Z,22.40
2022-12-09T07:58:57.374Z,21.77
2022-12-09T08:01:27.686Z,21.20
2022-12-09T08:03:55.428Z,25.47
2022-12-09T08:06:25.940Z,23.03
2022-12-09T08:08:53.230Z,21.10
2022-12-09T08:11:23.675Z,22.60
2022-12-09T08:13:51.753Z,19.97
2022-12-09T08:16:21.377Z,23.47
2022-12-09T08:18:49.606Z,21.37
2022-12-09T08:21:21.250Z,19.07
2022-12-09T08:23:49.406Z,19.27
2022-12-09T08:26:19.929Z,19.17
2022-12-09T08:28:47.767Z,17.73
2022-12-09T08:31:38.802Z,19.40
2022-12-09T08:34:08.017Z,19.50
2022-12-09T08:36:35.106Z,18.87
2022-12-09T08:39:02.282Z,19.63
2022-12-09T08:41:36.318Z,21.23
2022-12-09T08:44:11.439Z,22.47
2022-12-09T08:46:40.977Z,20.57
2022-12-09T08:49:08.472Z,21.33
2022-12-09T08:51:35.799Z,20.33
2022-12-09T08:54:04.266Z,18.17
2022-12-09T08:56:31.391Z,18.40
2022-12-09T08:58:58.179Z,18.23
2022-12-09T09:01:32.305Z,18.50
2022-12-09T09:04:05.416Z,22.87
2022-12-09T09:06:33.225Z,21.60
2022-12-09T09:09:00.292Z,22.30
2022-12-09T09:11:27.830Z,20.37
2022-12-09T09:13:54.749Z,18.80
2022-12-09T09:16:24.157Z,22.13
2022-12-09T09:18:52.554Z,17.70
2022-12-09T09:21:22.669Z,21.83
2022-12-09T09:23:50.379Z,20.43
2022-12-09T09:26:20.210Z,19.20
2022-12-09T09:28:47.326Z,19.73
2022-12-09T09:31:17.648Z,17.57
2022-12-09T09:33:45.253Z,17.70
2022-12-09T09:36:21.825Z,17.90
2022-12-09T09:38:50.768Z,16.87
2022-12-09T09:41:25.534Z,18.03
2022-12-09T09:43:55.248Z,19.97
2022-12-09T09:46:35.008Z,16.47
2022-12-09T09:49:05.963Z,20.80
2022-12-09T09:51:34.498Z,18.33
2022-12-09T09:54:06.653Z,19.30
2022-12-09T09:56:41.108Z,17.57
2022-12-09T09:59:32.856Z,14.57
2022-12-09T10:02:00.346Z,21.93
2022-12-09T10:04:43.443Z,15.07
2022-12-09T10:07:20.095Z,18.40
2022-12-09T10:10:13.525Z,18.30
2022-12-09T10:13:00.597Z,16.90
2022-12-09T10:15:41.911Z,18.77
2022-12-09T10:18:19.298Z,18.43
2022-12-09T10:20:46.922Z,20.73
2022-12-09T10:23:16.364Z,14.67
2022-12-09T10:25:56.779Z,17.17
2022-12-09T10:28:29.989Z,15.90
2022-12-09T10:30:57.346Z,14.40
2022-12-09T10:33:35.362Z,16.07
2022-12-09T10:36:03.658Z,15.30
2022-12-09T10:38:31.701Z,17.13
2022-12-09T10:41:09.825Z,14.73
2022-12-09T10:43:39.599Z,17.07
2022-12-09T10:46:18.064Z,21.23
2022-12-09T10:48:46.426Z,16.47
2022-12-09T10:51:15.789Z,15.27
2022-12-09T10:53:48.688Z,16.93
2022-12-09T10:56:22.709Z,15.63
2022-12-09T10:58:49.575Z,14.10
2022-12-09T11:01:17.413Z,15.83
2022-12-09T11:03:53.643Z,13.47
2022-12-09T11:06:23.697Z,16.17
2022-12-09T11:09:00.124Z,16.03
2022-12-09T11:11:49.605Z,19.80
2022-12-09T11:14:24.906Z,16.37
2022-12-09T11:16:54.477Z,16.43
2022-12-09T11:19:34.287Z,16.43
2022-12-09T11:22:28.367Z,16.20
2022-12-09T11:25:06.141Z,13.63
2022-12-09T11:27:34.879Z,13.53
2022-12-09T11:30:14.345Z,14.77
2022-12-09T11:33:00.849Z,16.63
2022-12-09T11:35:43.717Z,15.60
2022-12-09T11:38:35.715Z,12.53
2022-12-09T11:41:13.117Z,11.20
2022-12-09T11:43:56.386Z,13.40
2022-12-09T11:46:29.294Z,11.73
2022-12-09T11:48:59.364Z,12.57
2022-12-09T11:51:31.024Z,13.23
2022-12-09T11:54:10.827Z,12.77
2022-12-09T11:56:39.941Z,12.90
2022-12-09T11:59:13.356Z,11.77
2022-12-09T12:01:56.289Z,10.47
2022-12-09T12:04:30.882Z,15.73
2022-12-09T12:07:24.444Z,11.33
2022-12-09T12:09:55.114Z,11.47
2022-12-09T12:12:54.533Z,13.70
2022-12-09T12:15:39.439Z,12.50
2022-12-09T12:18:14.507Z,16.80
2022-12-09T12:20:41.043Z,17.77
2022-12-09T12:23:46.349Z,27.70
2022-12-09T12:26:24.881Z,11.70
2022-12-09T12:28:59.088Z,11.73
2022-12-09T12:31:55.740Z,11.90
2022-12-09T12:34:27.306Z,10.73
2022-12-09T12:36:58.728Z,22.57
2022-12-09T12:39:47.091Z,14.57
2022-12-09T12:42:23.100Z,13.77
2022-12-09T12:45:22.053Z,9.17
2022-12-09T12:48:07.536Z,10.60
2022-12-09T12:50:46.864Z,11.73
2022-12-09T12:53:31.522Z,10.57
2022-12-09T12:56:07.365Z,9.33
2022-12-09T12:58:53.012Z,10.67
2022-12-09T13:01:30.516Z,9.73
2022-12-09T13:04:22.693Z,11.47
2022-12-09T13:06:55.177Z,12.17
2022-12-09T13:09:33.335Z,9.47
2022-12-09T13:12:07.303Z,14.67
2022-12-09T13:14:52.204Z,11.23
2022-12-09T13:17:25.348Z,12.50
2022-12-09T13:19:56.072Z,10.43
2022-12-09T13:22:29.707Z,12.03
2022-12-09T13:25:25.790Z,13.43
2022-12-09T13:28:04.012Z,16.17
2022-12-09T13:30:53.850Z,10.80
2022-12-09T13:33:52.802Z,14.03
2022-12-09T13:36:37.818Z,12.10
2022-12-09T13:39:05.284Z,15.80
2022-12-09T13:41:51.824Z,13.20
2022-12-09T13:44:19.424Z,14.83
2022-12-09T13:46:46.133Z,10.87
2022-12-09T13:49:19.936Z,22.33
2022-12-09T13:51:51.529Z,11.33
2022-12-09T13:54:21.072Z,16.63
2022-12-09T13:57:06.880Z,11.40
2022-12-09T13:59:42.532Z,9.90
2022-12-09T14:02:14.625Z,12.83
2022-12-09T14:04:54.184Z,16.30
2022-12-09T14:07:37.016Z,11.27
2022-12-09T14:10:04.084Z,12.47
2022-12-09T14:12:32.540Z,12.20
2022-12-09T14:15:05.289Z,13.40
2022-12-09T14:17:33.764Z,13.73
2022-12-09T14:20:21.321Z,11.17
2022-12-09T14:23:06.427Z,13.77
2022-12-09T14:25:35.963Z,11.40
2022-12-09T14:28:11.526Z,12.60
2022-12-09T14:30:52.180Z,15.73
2022-12-09T14:33:30.803Z,11.63
2022-12-09T14:36:15.692Z,15.07
2022-12-09T14:39:23.087Z,11.67
2022-12-09T14:41:49.305Z,13.27
2022-12-09T14:44:40.570Z,14.37
2022-12-09T14:47:28.171Z,12.73
2022-12-09T14:49:56.066Z,12.97
2022-12-09T14:52:30.672Z,13.03
2022-12-09T14:55:05.033Z,11.63
2022-12-09T14:57:41.458Z,10.60
2022-12-09T15:00:35.489Z,13.80
2022-12-09T15:06:02.740Z,14.13
2022-12-09T15:08:32.088Z,13.80
2022-12-09T15:11:01.690Z,14.40
2022-12-09T15:13:30.716Z,14.13
2022-12-09T15:15:57.482Z,13.50
2022-12-09T15:18:37.595Z,11.87
2022-12-09T15:21:07.868Z,15.30
2022-12-09T15:23:40.177Z,13.20
2022-12-09T15:26:28.905Z,13.33
2022-12-09T15:28:56.788Z,13.30
2022-12-09T15:31:26.823Z,29.10
2022-12-09T15:33:56.298Z,22.10
2022-12-09T15:36:34.371Z,15.63
2022-12-09T15:39:08.419Z,16.17
2022-12-09T15:42:01.652Z,21.37
2022-12-09T15:44:51.692Z,13.53
2022-12-09T15:47:25.981Z,13.67
2022-12-09T15:50:03.731Z,14.47
2022-12-09T15:52:39.089Z,12.00
2022-12-09T15:55:11.824Z,12.87
2022-12-09T15:57:40.029Z,15.60
2022-12-09T16:00:07.501Z,12.67
2022-12-09T16:02:39.411Z,13.47
2022-12-09T16:05:09.418Z,12.40
2022-12-09T16:07:37.072Z,12.40
2022-12-09T16:10:03.611Z,12.90
2022-12-09T16:12:32.502Z,15.10
2022-12-09T16:14:59.496Z,13.43
2022-12-09T16:17:31.904Z,14.63
2022-12-09T16:19:59.052Z,13.13
2022-12-09T16:22:30.185Z,15.80
2022-12-09T16:25:21.858Z,14.13
2022-12-09T16:27:55.780Z,13.80
2022-12-09T16:30:25.944Z,14.37
2022-12-09T16:32:57.021Z,15.37
2022-12-09T16:35:28.332Z,15.50
2022-12-09T16:37:57.713Z,15.60
2022-12-09T16:40:24.273Z,15.90
2022-12-09T16:42:56.481Z,19.93
2022-12-09T16:45:31.888Z,19.67
2022-12-09T16:47:59.647Z,20.17
2022-12-09T16:50:30.363Z,21.83
2022-12-09T16:53:02.440Z,22.67
2022-12-09T16:55:30.930Z,22.97
2022-12-09T16:57:59.209Z,21.17
2022-12-09T17:00:26.179Z,22.00
2022-12-09T17:03:01.557Z,23.97
2022-12-09T17:05:28.441Z,24.07
2022-12-09T17:07:55.665Z,26.63
2022-12-09T17:10:22.590Z,23.70
2022-12-09T17:12:49.250Z,26.03
2022-12-09T17:15:18.561Z,22.20
2022-12-09T17:17:49.096Z,20.70
2022-12-09T17:20:16.347Z,19.63
2022-12-09T17:22:43.125Z,19.10
2022-12-09T17:25:10.390Z,21.80
2022-12-09T17:27:37.547Z,21.47
2022-12-09T17:30:05.195Z,19.97
2022-12-09T17:32:31.806Z,19.50
2022-12-09T17:34:58.681Z,20.93
2022-12-09T17:37:25.346Z,20.27
2022-12-09T17:39:56.838Z,18.67
2022-12-09T17:42:26.698Z,16.83
2022-12-09T17:44:53.286Z,21.37
2022-12-09T17:47:19.937Z,20.93
2022-12-09T17:49:46.767Z,21.77
2022-12-09T17:52:14.143Z,21.30
2022-12-09T17:54:40.782Z,20.70
2022-12-09T17:57:07.409Z,26.53
2022-12-09T17:59:34.082Z,28.27
2022-12-09T18:02:03.381Z,31.53
2022-12-09T18:04:31.356Z,34.17
2022-12-09T18:06:58.101Z,28.23
2022-12-09T18:09:24.858Z,26.07
2022-12-09T18:11:51.877Z,34.80
2022-12-09T18:14:20.418Z,38.43
2022-12-09T18:16:48.906Z,38.07
2022-12-09T18:19:17.460Z,37.70
2022-12-09T18:21:45.032Z,37.27
2022-12-09T18:24:12.674Z,32.50
2022-12-09T18:26:42.039Z,31.20
2022-12-09T18:29:10.488Z,30.33
2022-12-09T18:31:37.376Z,26.80
2022-12-09T18:34:04.116Z,28.40
2022-12-09T18:36:31.064Z,26.67
2022-12-09T18:39:01.534Z,28.27
2022-12-09T18:41:30.806Z,26.43
2022-12-09T18:43:59.597Z,24.43
2022-12-09T18:46:29.381Z,24.17
2022-12-09T18:49:05.025Z,25.50
2022-12-09T18:51:32.699Z,25.63
2022-12-09T18:54:00.903Z,26.50
2022-12-09T18:56:28.601Z,24.93
2022-12-09T18:59:11.528Z,26.43
2022-12-09T19:01:43.758Z,30.40
2022-12-09T19:04:21.731Z,29.80
2022-12-09T19:06:50.699Z,29.53
2022-12-09T19:09:26.583Z,25.13
2022-12-09T19:11:53.467Z,26.43
2022-12-09T19:14:21.783Z,26.57
2022-12-09T19:16:49.189Z,31.17
2022-12-09T19:19:18.474Z,29.47
2022-12-09T19:21:45.939Z,29.83
2022-12-09T19:24:15.840Z,26.53
2022-12-09T19:26:42.975Z,26.90
2022-12-09T19:29:10.646Z,26.90
2022-12-09T19:31:43.045Z,26.30
2022-12-09T19:34:15.996Z,28.10
2022-12-09T19:36:44.500Z,31.67
2022-12-09T19:39:16.426Z,29.20
2022-12-09T19:41:44.586Z,27.60
2022-12-09T19:44:21.618Z,28.90
2022-12-09T19:46:53.900Z,28.43
2022-12-09T19:49:21.839Z,29.37
2022-12-09T19:51:49.594Z,30.83
2022-12-09T19:54:16.725Z,27.30
2022-12-09T19:56:44.320Z,26.17
2022-12-09T19:59:11.908Z,26.47
2022-12-09T20:01:41.986Z,25.73
2022-12-09T20:07:08.601Z,24.97
2022-12-09T20:09:36.850Z,27.97
2022-12-09T20:12:04.189Z,26.87
2022-12-09T20:14:33.234Z,27.70
2022-12-09T20:16:59.888Z,25.73
2022-12-09T20:19:26.525Z,28.33
2022-12-09T20:21:53.576Z,28.80
2022-12-09T20:24:20.381Z,26.37
2022-12-09T20:26:47.010Z,26.17
2022-12-09T20:29:13.723Z,28.67
2022-12-09T20:31:42.551Z,29.13
2022-12-09T20:34:14.952Z,31.80
2022-12-09T20:36:43.553Z,28.40
2022-12-09T20:39:19.380Z,28.30
2022-12-09T20:41:47.805Z,29.37
2022-12-09T20:44:15.916Z,29.53
2022-12-09T20:46:48.426Z,28.37
2022-12-09T20:49:15.123Z,29.13
2022-12-09T20:51:45.064Z,29.67
2022-12-09T20:54:11.936Z,35.20
2022-12-09T20:56:38.803Z,40.87
2022-12-09T20:59:06.643Z,39.43
2022-12-09T21:01:34.795Z,32.77
2022-12-09T21:04:03.238Z,32.80
2022-12-09T21:06:33.352Z,32.10
2022-12-09T21:09:05.279Z,26.37
2022-12-09T21:11:32.488Z,31.73
2022-12-09T21:14:01.457Z,31.00
2022-12-09T21:16:33.630Z,29.97
2022-12-09T21:19:02.467Z,32.97
2022-12-09T21:21:31.878Z,29.97
2022-12-09T21:23:59.709Z,28.13
2022-12-09T21:26:27.497Z,29.63
2022-12-09T21:28:54.374Z,26.33
2022-12-09T21:31:26.463Z,31.87
2022-12-09T21:33:55.206Z,28.07
2022-12-09T21:36:24.896Z,30.70
2022-12-09T21:38:52.593Z,25.90
2022-12-09T21:41:22.188Z,32.27
2022-12-09T21:43:48.898Z,27.50
2022-12-09T21:46:20.887Z,33.90
2022-12-09T21:48:52.020Z,29.90
2022-12-09T21:51:19.963Z,33.87
2022-12-09T21:53:47.577Z,30.80
2022-12-09T21:56:19.923Z,26.70
2022-12-09T21:58:49.023Z,28.87
2022-12-09T22:01:22.087Z,25.67
2022-12-09T22:03:49.785Z,23.17
2022-12-09T22:06:17.642Z,24.93
2022-12-09T22:08:44.619Z,27.30
2022-12-09T22:11:16.652Z,27.47
2022-12-09T22:13:43.770Z,27.77
2022-12-09T22:16:13.276Z,24.43
2022-12-09T22:18:41.736Z,25.53
2022-12-09T22:21:28.026Z,26.00
2022-12-09T22:23:57.147Z,26.63
2022-12-09T22:26:24.227Z,23.80
2022-12-09T22:28:52.499Z,24.97
2022-12-09T22:31:26.477Z,25.37
2022-12-09T22:33:55.634Z,23.03
2022-12-09T22:36:22.971Z,24.27
2022-12-09T22:38:50.254Z,26.93
2022-12-09T22:41:22.168Z,27.20
2022-12-09T22:43:50.113Z,28.00
2022-12-09T22:46:21.402Z,24.80
2022-12-09T22:48:48.553Z,25.80
2022-12-09T22:51:27.751Z,25.27
2022-12-09T22:53:55.871Z,26.13
2022-12-09T22:56:24.347Z,25.13
2022-12-09T22:58:51.635Z,25.43
2022-12-09T23:01:22.053Z,23.40
2022-12-09T23:03:49.071Z,23.87
2022-12-09T23:06:15.728Z,26.53
2022-12-09T23:08:44.127Z,25.63
2022-12-09T23:11:14.791Z,24.10
2022-12-09T23:13:41.716Z,26.40
2022-12-09T23:16:12.299Z,25.30
2022-12-09T23:18:39.603Z,26.17
2022-12-09T23:21:09.401Z,26.23
2022-12-09T23:23:36.461Z,24.50
2022-12-09T23:26:09.589Z,25.73
2022-12-09T23:28:40.850Z,28.20
2022-12-09T23:31:09.972Z,25.47
2022-12-09T23:33:38.669Z,25.00
2022-12-09T23:36:11.711Z,30.20
2022-12-09T23:38:38.470Z,33.50
2022-12-09T23:41:06.016Z,30.20
2022-12-09T23:43:34.468Z,29.33
2022-12-09T23:46:04.638Z,28.37
2022-12-09T23:48:32.068Z,25.50
2022-12-09T23:51:00.101Z,27.47
2022-12-09T23:53:26.882Z,25.83
2022-12-09T23:55:53.550Z,24.53
2022-12-09T23:58:20.174Z,21.97
